createdAt,value
2022-09-26T00:01:42.954Z,27.70
2022-09-26T00:04:30.404Z,26.00
2022-09-26T00:07:00.082Z,26.48
2022-09-26T00:09:28.333Z,27.58
2022-09-26T00:11:58.052Z,26.40
2022-09-26T00:14:31.934Z,27.40
2022-09-26T00:17:01.265Z,25.45
2022-09-26T00:19:28.732Z,26.80
2022-09-26T00:21:58.050Z,26.20
2022-09-26T00:24:27.406Z,26.92
2022-09-26T00:26:54.857Z,27.33
2022-09-26T00:29:24.385Z,26.27
2022-09-26T00:31:52.325Z,26.58
2022-09-26T00:34:22.402Z,27.98
2022-09-26T00:36:52.673Z,26.00
2022-09-26T00:39:19.934Z,26.67
2022-09-26T00:41:49.638Z,26.98
2022-09-26T00:44:56.694Z,25.52
2022-09-26T00:47:35.402Z,26.75
2022-09-26T00:50:08.119Z,27.27
2022-09-26T00:52:42.828Z,26.20
2022-09-26T00:55:15.559Z,28.08
2022-09-26T00:57:51.566Z,25.95
2022-09-26T01:00:21.348Z,26.38
2022-09-26T01:02:53.798Z,27.88
2022-09-26T01:05:26.113Z,27.17
2022-09-26T01:07:59.047Z,26.58
2022-09-26T01:10:32.758Z,27.08
2022-09-26T01:13:02.136Z,27.85
2022-09-26T01:15:30.086Z,27.40
2022-09-26T01:18:00.180Z,27.95
2022-09-26T01:20:55.237Z,27.73
2022-09-26T01:23:46.583Z,31.48
2022-09-26T01:26:47.338Z,28.98
2022-09-26T01:29:26.582Z,27.10
2022-09-26T01:32:37.406Z,28.98
2022-09-26T01:35:27.303Z,27.55
2022-09-26T01:38:21.734Z,30.25
2022-09-26T01:41:34.147Z,28.50
2022-09-26T01:44:17.013Z,30.17
2022-09-26T01:49:28.397Z,27.55
2022-09-26T01:52:22.863Z,28.08
2022-09-26T01:55:03.606Z,28.77
2022-09-26T01:57:42.754Z,27.40
2022-09-26T02:00:14.307Z,28.75
2022-09-26T02:02:48.373Z,29.33
2022-09-26T02:05:24.342Z,29.35
2022-09-26T02:08:10.022Z,29.23
2022-09-26T02:10:49.067Z,30.70
2022-09-26T02:13:24.662Z,29.58
2022-09-26T02:15:57.270Z,29.27
2022-09-26T02:18:37.602Z,29.63
2022-09-26T02:21:22.128Z,30.10
2022-09-26T02:23:51.869Z,31.33
2022-09-26T02:26:19.560Z,28.02
2022-09-26T02:28:49.595Z,32.03
2022-09-26T02:31:23.611Z,34.42
2022-09-26T02:33:54.209Z,40.03
2022-09-26T02:36:24.456Z,39.95
2022-09-26T02:38:55.280Z,37.08
2022-09-26T02:42:00.574Z,41.25
2022-09-26T02:44:55.513Z,36.25
2022-09-26T02:47:55.029Z,37.22
2022-09-26T02:50:39.108Z,34.00
2022-09-26T02:53:23.889Z,34.72
2022-09-26T02:56:25.858Z,34.47
2022-09-26T02:59:35.826Z,33.13
2022-09-26T03:02:13.402Z,34.20
2022-09-26T03:05:00.040Z,35.30
2022-09-26T03:07:39.746Z,34.20
2022-09-26T03:10:09.563Z,34.75
2022-09-26T03:12:44.814Z,34.15
2022-09-26T03:15:14.189Z,34.17
2022-09-26T03:17:45.629Z,32.42
2022-09-26T03:20:20.395Z,32.25
2022-09-26T03:22:49.625Z,30.50
2022-09-26T03:25:22.506Z,32.03
2022-09-26T03:28:02.402Z,32.42
2022-09-26T03:30:33.953Z,31.77
2022-09-26T03:33:23.909Z,29.52
2022-09-26T03:35:54.660Z,30.85
2022-09-26T03:38:22.926Z,30.38
2022-09-26T03:41:00.569Z,31.25
2022-09-26T03:43:46.267Z,29.08
2022-09-26T03:46:16.156Z,30.67
2022-09-26T03:48:45.988Z,31.48
2022-09-26T03:51:15.591Z,33.92
2022-09-26T03:53:47.189Z,30.65
2022-09-26T03:56:18.840Z,32.83
2022-09-26T03:58:48.970Z,34.80
2022-09-26T04:01:19.585Z,33.00
2022-09-26T04:03:50.900Z,31.70
2022-09-26T04:06:20.828Z,32.92
2022-09-26T04:08:51.251Z,32.50
2022-09-26T04:11:21.714Z,33.58
2022-09-26T04:13:52.393Z,34.08
2022-09-26T04:16:23.789Z,34.22
2022-09-26T04:18:57.596Z,33.22
2022-09-26T04:21:29.868Z,32.95
2022-09-26T04:24:01.779Z,33.55
2022-09-26T04:26:29.186Z,31.98
2022-09-26T04:28:57.833Z,32.33
2022-09-26T04:31:39.624Z,32.58
2022-09-26T04:34:15.963Z,32.78
2022-09-26T04:36:43.704Z,30.27
2022-09-26T04:39:13.795Z,33.00
2022-09-26T04:41:40.911Z,32.65
2022-09-26T04:44:12.737Z,32.08
2022-09-26T04:46:42.150Z,32.58
2022-09-26T04:49:11.234Z,31.92
2022-09-26T04:51:38.608Z,32.45
2022-09-26T04:54:08.595Z,31.38
2022-09-26T04:56:43.552Z,31.50
2022-09-26T04:59:13.120Z,34.13
2022-09-26T05:01:54.920Z,33.08
2022-09-26T05:04:37.073Z,32.22
2022-09-26T05:07:04.510Z,34.17
2022-09-26T05:09:36.077Z,32.90
2022-09-26T05:12:13.315Z,34.90
2022-09-26T05:14:46.918Z,33.88
2022-09-26T05:17:15.492Z,33.42
2022-09-26T05:19:47.343Z,34.38
2022-09-26T05:22:21.405Z,33.15
2022-09-26T05:25:07.678Z,32.78
2022-09-26T05:27:41.422Z,32.45
2022-09-26T05:30:09.195Z,32.72
2022-09-26T05:32:47.455Z,32.72
2022-09-26T05:35:16.469Z,31.88
2022-09-26T05:37:44.419Z,32.42
2022-09-26T05:40:32.358Z,33.85
2022-09-26T05:43:05.349Z,32.75
2022-09-26T05:45:33.335Z,31.90
2022-09-26T05:48:06.018Z,33.00
2022-09-26T05:50:34.368Z,30.48
2022-09-26T05:53:02.571Z,32.10
2022-09-26T05:55:33.565Z,30.33
2022-09-26T05:58:08.505Z,29.42
2022-09-26T06:01:05.060Z,29.63
2022-09-26T06:03:37.171Z,28.90
2022-09-26T06:06:18.527Z,28.58
2022-09-26T06:08:47.037Z,28.67
2022-09-26T06:11:34.750Z,30.08
2022-09-26T06:14:02.840Z,29.27
2022-09-26T06:16:33.063Z,31.10
2022-09-26T06:19:02.508Z,29.13
2022-09-26T06:21:34.544Z,30.88
2022-09-26T06:24:09.087Z,29.88
2022-09-26T06:26:38.773Z,31.73
2022-09-26T06:29:07.502Z,31.25
2022-09-26T06:31:36.625Z,32.17
2022-09-26T06:34:12.066Z,33.22
2022-09-26T06:36:50.770Z,31.25
2022-09-26T06:39:18.217Z,32.97
2022-09-26T06:41:49.632Z,32.85
2022-09-26T06:44:36.225Z,33.50
2022-09-26T06:47:18.451Z,32.95
2022-09-26T06:49:49.153Z,32.45
2022-09-26T06:52:34.591Z,32.35
2022-09-26T06:55:03.770Z,36.67
2022-09-26T06:57:42.542Z,34.45
2022-09-26T07:00:16.249Z,35.80
2022-09-26T07:03:01.432Z,32.72
2022-09-26T07:05:49.771Z,31.98
2022-09-26T07:08:17.373Z,34.03
2022-09-26T07:10:47.171Z,34.63
2022-09-26T07:13:29.273Z,34.88
2022-09-26T07:16:01.946Z,35.63
2022-09-26T07:18:57.978Z,35.85
2022-09-26T07:21:59.712Z,36.58
2022-09-26T07:24:31.595Z,35.10
2022-09-26T07:26:58.859Z,35.97
2022-09-26T07:29:28.697Z,37.88
2022-09-26T07:31:59.606Z,36.40
2022-09-26T07:37:10.354Z,36.33
2022-09-26T07:39:40.153Z,36.38
2022-09-26T07:42:09.714Z,38.95
2022-09-26T07:45:20.575Z,38.10
2022-09-26T07:47:46.319Z,36.90
2022-09-26T07:50:38.782Z,35.58
2022-09-26T07:53:28.166Z,35.35
2022-09-26T07:56:20.761Z,36.75
2022-09-26T07:59:18.577Z,38.72
2022-09-26T08:02:24.057Z,37.47
2022-09-26T08:05:00.910Z,37.47
2022-09-26T08:07:35.628Z,35.35
2022-09-26T08:10:19.180Z,34.83
2022-09-26T08:13:07.397Z,33.88
2022-09-26T08:16:06.278Z,34.20
2022-09-26T08:18:41.563Z,36.33
2022-09-26T08:21:08.938Z,33.95
2022-09-26T08:23:36.396Z,35.35
2022-09-26T08:26:23.815Z,32.47
2022-09-26T08:28:57.735Z,32.72
2022-09-26T08:31:25.390Z,34.30
2022-09-26T08:33:55.430Z,33.22
2022-09-26T08:36:23.930Z,33.70
2022-09-26T08:39:05.906Z,35.67
2022-09-26T08:42:33.920Z,34.58
2022-09-26T08:46:03.514Z,34.42
2022-09-26T08:49:13.469Z,34.30
2022-09-26T08:51:50.738Z,33.70
2022-09-26T08:54:43.328Z,31.65
2022-09-26T08:57:41.887Z,30.75
2022-09-26T09:00:25.008Z,32.40
2022-09-26T09:03:16.029Z,34.40
2022-09-26T09:05:55.960Z,31.13
2022-09-26T09:08:30.013Z,35.10
2022-09-26T09:11:24.906Z,33.92
2022-09-26T09:14:07.141Z,32.35
2022-09-26T09:17:38.346Z,33.53
2022-09-26T09:20:31.386Z,32.92
2022-09-26T09:23:26.601Z,30.95
2022-09-26T09:27:52.210Z,30.15
2022-09-26T09:29:10.354Z,32.08
2022-09-26T09:31:43.036Z,30.88
2022-09-26T09:34:27.598Z,31.20
2022-09-26T09:37:23.854Z,28.25
2022-09-26T09:39:57.375Z,29.02
2022-09-26T09:42:48.160Z,30.50
2022-09-26T09:47:48.489Z,30.02
2022-09-26T09:50:41.388Z,28.63
2022-09-26T09:53:33.584Z,28.88
2022-09-26T09:56:16.075Z,28.30
2022-09-26T09:58:46.563Z,28.75
2022-09-26T10:01:28.479Z,29.95
2022-09-26T10:04:27.762Z,30.77
2022-09-26T10:06:55.830Z,29.17
2022-09-26T10:09:47.115Z,26.75
2022-09-26T10:12:31.141Z,26.67
2022-09-26T10:15:34.010Z,26.52
2022-09-26T10:18:26.041Z,26.13
2022-09-26T10:21:12.633Z,26.05
2022-09-26T10:23:46.846Z,24.35
2022-09-26T10:26:44.772Z,25.42
2022-09-26T10:29:38.314Z,24.08
2022-09-26T10:32:10.363Z,21.77
2022-09-26T10:34:42.654Z,21.42
2022-09-26T10:37:25.179Z,21.45
2022-09-26T10:40:21.084Z,23.65
2022-09-26T10:42:51.802Z,19.15
2022-09-26T10:45:27.193Z,17.48
2022-09-26T10:51:01.966Z,15.27
2022-09-26T10:53:52.119Z,17.42
2022-09-26T10:56:31.856Z,16.42
2022-09-26T10:59:06.008Z,16.13
2022-09-26T11:01:43.333Z,12.95
2022-09-26T11:04:39.751Z,15.32
2022-09-26T11:07:36.100Z,12.40
2022-09-26T11:10:25.395Z,13.52
2022-09-26T11:13:16.602Z,13.40
2022-09-26T11:16:04.825Z,16.40
2022-09-26T11:18:50.553Z,15.45
2022-09-26T11:21:29.419Z,14.82
2022-09-26T11:24:03.810Z,14.90
2022-09-26T11:26:49.344Z,14.88
2022-09-26T11:29:46.361Z,14.15
2022-09-26T11:32:41.429Z,14.15
2022-09-26T11:35:34.586Z,14.05
2022-09-26T11:38:12.934Z,13.05
2022-09-26T11:41:07.266Z,12.98
2022-09-26T11:43:50.984Z,10.98
2022-09-26T11:47:10.483Z,10.23
2022-09-26T11:49:52.946Z,9.57
2022-09-26T11:52:49.211Z,9.20
2022-09-26T11:55:30.999Z,9.10
2022-09-26T11:58:16.648Z,9.82
2022-09-26T12:01:16.886Z,11.07
2022-09-26T12:04:26.602Z,11.88
2022-09-26T12:07:11.491Z,11.25
2022-09-26T12:09:51.488Z,12.38
2022-09-26T12:12:42.515Z,11.55
2022-09-26T12:15:30.887Z,11.77
2022-09-26T12:18:04.240Z,11.77
2022-09-26T12:20:47.507Z,11.27
2022-09-26T12:23:23.640Z,11.25
2022-09-26T12:26:15.281Z,11.38
2022-09-26T12:29:09.776Z,11.30
2022-09-26T12:32:25.666Z,17.90
2022-09-26T12:35:31.379Z,11.13
2022-09-26T12:38:33.668Z,10.15
2022-09-26T12:41:31.645Z,10.50
2022-09-26T12:44:07.831Z,10.45
2022-09-26T12:46:59.345Z,10.70
2022-09-26T12:50:05.203Z,9.27
2022-09-26T12:53:01.548Z,9.40
2022-09-26T12:56:11.026Z,9.43
2022-09-26T12:58:47.395Z,8.75
2022-09-26T13:01:49.743Z,9.38
2022-09-26T13:04:34.099Z,9.05
2022-09-26T13:07:42.406Z,8.70
2022-09-26T13:10:22.010Z,9.68
2022-09-26T13:13:11.196Z,8.45
2022-09-26T13:16:02.447Z,8.73
2022-09-26T13:18:38.059Z,8.93
2022-09-26T13:21:41.211Z,10.07
2022-09-26T13:24:21.321Z,9.38
2022-09-26T13:27:00.447Z,10.73
2022-09-26T13:29:37.536Z,9.45
2022-09-26T13:32:28.240Z,9.30
2022-09-26T13:35:04.172Z,9.82
2022-09-26T13:37:56.630Z,9.93
2022-09-26T13:40:45.473Z,9.98
2022-09-26T13:43:47.755Z,9.75
2022-09-26T13:46:44.666Z,10.35
2022-09-26T13:49:52.049Z,10.90
2022-09-26T13:52:40.235Z,10.90
2022-09-26T13:55:12.260Z,11.32
2022-09-26T13:58:03.027Z,11.35
2022-09-26T14:00:30.647Z,9.57
2022-09-26T14:03:16.631Z,10.23
2022-09-26T14:05:44.308Z,12.00
2022-09-26T14:08:51.934Z,12.20
2022-09-26T14:11:19.213Z,8.70
2022-09-26T14:13:47.991Z,6.63
2022-09-26T14:16:36.913Z,5.20
2022-09-26T14:19:09.604Z,4.72
2022-09-26T14:22:03.234Z,4.35
2022-09-26T14:24:37.229Z,4.75
2022-09-26T14:27:10.358Z,5.05
2022-09-26T14:29:42.467Z,5.13
2022-09-26T14:32:12.288Z,4.68
2022-09-26T14:34:46.072Z,6.80
2022-09-26T14:37:25.294Z,7.80
2022-09-26T14:40:10.149Z,6.68
2022-09-26T14:42:50.074Z,6.32
2022-09-26T14:45:21.175Z,6.88
2022-09-26T14:48:23.156Z,6.60
2022-09-26T14:51:06.682Z,6.70
2022-09-26T14:54:08.966Z,8.02
2022-09-26T14:56:48.866Z,7.65
2022-09-26T14:59:25.243Z,8.18
2022-09-26T15:02:15.293Z,7.07
2022-09-26T15:05:07.150Z,7.10
2022-09-26T15:07:43.952Z,8.70
2022-09-26T15:10:11.928Z,7.68
2022-09-26T15:13:00.731Z,7.35
2022-09-26T15:15:44.862Z,8.35
2022-09-26T15:18:27.597Z,8.77
2022-09-26T15:21:04.802Z,8.38
2022-09-26T15:23:47.313Z,11.10
2022-09-26T15:26:21.773Z,15.05
2022-09-26T15:28:57.040Z,13.82
2022-09-26T15:31:44.000Z,10.68
2022-09-26T15:34:16.254Z,9.27
2022-09-26T15:36:52.647Z,10.27
2022-09-26T15:39:33.745Z,10.50
2022-09-26T15:42:34.077Z,11.43
2022-09-26T15:47:30.094Z,9.75
2022-09-26T15:50:25.128Z,12.07
2022-09-26T15:53:25.184Z,10.15
2022-09-26T15:58:36.855Z,11.13
2022-09-26T16:01:17.821Z,11.07
2022-09-26T16:04:07.966Z,10.27
2022-09-26T16:06:42.548Z,10.82
2022-09-26T16:09:25.351Z,9.80
2022-09-26T16:11:59.097Z,11.15
2022-09-26T16:14:58.596Z,10.27
2022-09-26T16:17:37.551Z,11.25
2022-09-26T16:20:18.611Z,11.80
2022-09-26T16:23:01.802Z,10.85
2022-09-26T16:25:32.730Z,11.82
2022-09-26T16:28:37.797Z,14.13
2022-09-26T16:31:09.987Z,13.32
2022-09-26T16:33:52.429Z,14.38
2022-09-26T16:36:27.465Z,12.63
2022-09-26T16:39:08.533Z,14.38
2022-09-26T16:44:38.674Z,13.25
2022-09-26T16:47:30.725Z,15.32
2022-09-26T16:50:16.222Z,14.43
2022-09-26T16:52:46.165Z,15.63
2022-09-26T16:55:16.752Z,15.30
2022-09-26T16:57:55.755Z,15.40
2022-09-26T17:00:51.972Z,14.82
2022-09-26T17:03:25.215Z,16.65
2022-09-26T17:05:57.665Z,16.60
2022-09-26T17:08:26.589Z,24.95
2022-09-26T17:10:56.331Z,37.08
2022-09-26T17:13:28.583Z,35.80
2022-09-26T17:16:01.218Z,24.58
2022-09-26T17:18:32.384Z,19.00
2022-09-26T17:21:02.902Z,19.90
2022-09-26T17:23:41.597Z,18.77
2022-09-26T17:26:19.935Z,16.63
2022-09-26T17:28:51.343Z,17.33
2022-09-26T17:31:20.209Z,18.00
2022-09-26T17:33:51.564Z,16.98
2022-09-26T17:36:27.974Z,17.02
2022-09-26T17:39:02.425Z,16.65
2022-09-26T17:41:32.716Z,16.58
2022-09-26T17:44:02.387Z,15.80
2022-09-26T17:46:33.888Z,18.48
2022-09-26T17:49:06.433Z,17.27
2022-09-26T17:51:42.217Z,19.65
2022-09-26T17:54:17.549Z,17.50
2022-09-26T17:56:48.457Z,21.52
2022-09-26T17:59:24.342Z,22.08
2022-09-26T18:02:33.971Z,22.08
2022-09-26T18:05:07.166Z,20.58
2022-09-26T18:07:43.496Z,22.20
2022-09-26T18:10:21.441Z,21.25
2022-09-26T18:13:00.256Z,21.38
2022-09-26T18:15:28.589Z,21.92
2022-09-26T18:17:56.848Z,21.90
2022-09-26T18:20:36.172Z,22.02
2022-09-26T18:23:11.220Z,19.98
2022-09-26T18:25:42.362Z,21.48
2022-09-26T18:28:19.972Z,21.23
2022-09-26T18:30:57.809Z,23.10
2022-09-26T18:33:27.986Z,20.35
2022-09-26T18:35:55.432Z,23.00
2022-09-26T18:38:22.656Z,21.52
2022-09-26T18:41:00.543Z,23.15
2022-09-26T18:43:39.069Z,22.30
2022-09-26T18:48:44.295Z,24.35
2022-09-26T18:51:13.886Z,26.10
2022-09-26T18:53:41.147Z,25.58
2022-09-26T18:56:28.946Z,24.00
2022-09-26T18:58:58.621Z,23.42
2022-09-26T19:01:45.812Z,25.33
2022-09-26T19:04:23.649Z,24.73
2022-09-26T19:07:00.893Z,23.05
2022-09-26T19:09:33.107Z,24.15
2022-09-26T19:12:01.402Z,22.13
2022-09-26T19:14:30.243Z,21.95
2022-09-26T19:17:03.417Z,22.95
2022-09-26T19:19:32.427Z,23.77
2022-09-26T19:22:01.156Z,23.27
2022-09-26T19:24:49.753Z,22.77
2022-09-26T19:27:54.047Z,22.50
2022-09-26T19:30:23.567Z,22.50
2022-09-26T19:32:53.036Z,21.23
2022-09-26T19:35:24.890Z,22.05
2022-09-26T19:37:54.975Z,22.85
2022-09-26T19:40:26.122Z,22.88
2022-09-26T19:42:55.147Z,23.02
2022-09-26T19:45:23.131Z,23.00
2022-09-26T19:47:53.199Z,21.85
2022-09-26T19:50:28.623Z,22.25
2022-09-26T19:53:01.124Z,23.85
2022-09-26T19:55:31.077Z,23.52
2022-09-26T19:58:06.846Z,22.55
2022-09-26T20:00:41.273Z,21.63
2022-09-26T20:03:29.579Z,21.25
2022-09-26T20:05:57.409Z,21.23
2022-09-26T20:08:26.710Z,21.38
2022-09-26T20:10:55.868Z,22.52
2022-09-26T20:13:25.446Z,21.63
2022-09-26T20:15:54.929Z,24.25
2022-09-26T20:18:24.139Z,23.25
2022-09-26T20:20:56.910Z,26.33
2022-09-26T20:23:26.755Z,24.60
2022-09-26T20:25:55.490Z,22.88
2022-09-26T20:28:25.082Z,26.25
2022-09-26T20:30:52.518Z,23.80
2022-09-26T20:33:26.755Z,25.65
2022-09-26T20:36:03.292Z,25.02
2022-09-26T20:38:47.895Z,29.63
2022-09-26T20:41:24.321Z,64.13
2022-09-26T20:44:01.698Z,30.48
2022-09-26T20:46:39.712Z,30.77
2022-09-26T20:49:13.243Z,29.67
2022-09-26T20:51:44.347Z,31.27
2022-09-26T20:54:25.381Z,32.50
2022-09-26T20:56:56.189Z,33.03
2022-09-26T20:59:29.655Z,33.25
2022-09-26T21:02:00.285Z,33.70
2022-09-26T21:04:32.778Z,32.90
2022-09-26T21:07:00.323Z,34.10
2022-09-26T21:09:30.818Z,35.15
2022-09-26T21:12:02.599Z,34.20
2022-09-26T21:14:38.950Z,33.47
2022-09-26T21:17:36.236Z,34.35
2022-09-26T21:20:12.412Z,35.75
2022-09-26T21:22:57.039Z,33.22
2022-09-26T21:25:26.413Z,33.55
2022-09-26T21:28:00.573Z,37.13
2022-09-26T21:30:33.983Z,37.45
2022-09-26T21:33:01.288Z,37.55
2022-09-26T21:35:31.089Z,36.17
2022-09-26T21:38:01.288Z,35.05
2022-09-26T21:40:31.762Z,35.00
2022-09-26T21:43:04.205Z,35.55
2022-09-26T21:45:33.952Z,36.30
2022-09-26T21:48:03.477Z,33.95
2022-09-26T21:50:30.744Z,35.28
2022-09-26T21:53:08.281Z,33.30
2022-09-26T21:55:43.806Z,32.83
2022-09-26T21:58:17.235Z,34.22
2022-09-26T22:00:44.538Z,35.17
2022-09-26T22:03:11.990Z,34.97
2022-09-26T22:05:39.378Z,34.13
2022-09-26T22:08:09.191Z,36.25
2022-09-26T22:10:37.005Z,34.20
2022-09-26T22:13:06.617Z,34.65
2022-09-26T22:15:36.146Z,34.15
2022-09-26T22:18:03.617Z,35.47
2022-09-26T22:20:30.711Z,34.17
2022-09-26T22:22:58.237Z,34.28
2022-09-26T22:25:30.743Z,36.30
2022-09-26T22:27:58.317Z,35.92
2022-09-26T22:30:28.391Z,32.88
2022-09-26T22:32:55.750Z,34.70
2022-09-26T22:35:27.671Z,32.13
2022-09-26T22:37:55.027Z,34.08
2022-09-26T22:40:29.380Z,34.40
2022-09-26T22:42:58.795Z,34.28
2022-09-26T22:45:28.739Z,35.05
2022-09-26T22:47:57.906Z,31.33
2022-09-26T22:50:27.627Z,36.65
2022-09-26T22:52:58.911Z,32.03
2022-09-26T22:55:28.129Z,34.38
2022-09-26T22:57:55.425Z,32.90
2022-09-26T23:00:27.569Z,32.97
2022-09-26T23:02:57.022Z,32.80
2022-09-26T23:05:26.937Z,31.40
2022-09-26T23:07:54.740Z,34.70
2022-09-26T23:10:24.525Z,34.10
2022-09-26T23:12:54.287Z,32.40
2022-09-26T23:15:21.559Z,34.00
2022-09-26T23:17:48.667Z,32.78
2022-09-26T23:20:21.267Z,32.00
2022-09-26T23:22:48.435Z,32.67
2022-09-26T23:25:18.784Z,32.90
2022-09-26T23:27:45.854Z,33.10
2022-09-26T23:30:15.209Z,31.95
2022-09-26T23:32:42.501Z,31.77
2022-09-26T23:35:11.750Z,30.88
2022-09-26T23:37:38.941Z,30.42
2022-09-26T23:40:06.714Z,37.30
2022-09-26T23:42:35.949Z,37.85
2022-09-26T23:45:03.312Z,38.92
2022-09-26T23:47:35.235Z,40.97
2022-09-26T23:50:06.046Z,44.55
2022-09-26T23:52:33.542Z,43.92
2022-09-26T23:55:00.792Z,46.25
2022-09-26T23:57:28.064Z,42.67
2022-09-26T23:59:55.440Z,42.50
